Impacts METAR Board
IDs:

KLGA - New York/La Guardia, NY, US

Updated at: 1200 UTC 16 Sep 2019
Potential Impact None Slight Moderate High
Time 16/00Z 16/01Z 16/02Z 16/03Z 16/04Z 16/05Z 16/06Z 16/07Z 16/08Z 16/09Z 16/10Z 16/11Z 16/12Z
Temp79 79 78 77 76 75 75 74 74 73 73 72 72
Dewpt55 55 56 57 55 54 56 57 58 58 58 59 60
Altim30.07 30.06 30.06 30.06 30.05 30.05 30.05 30.04 30.04 30.04 30.05 30.05 30.07
VIS10 10 10 10 10 10 10 10 10 10 10 10 10
CIG250 250 -- -- -- 250 250 100 100 160 110 85 80
CoverBKNBKNSCTSCTSCTBKNBKNBKNBKNBKNBKNBKNOVC
FltCatVFRVFRVFRVFRVFRVFRVFRVFRVFRVFRVFRVFRVFR
WX--------------------------
WDir29029030029028000002903003060
WSpd6 4 5 4 3 0 0 0 0 5 11 4 8
WGst-- -- -- -- -- -- -- -- -- -- -- -- --
Raw hourly METARs
KLGA 152351Z 29006KT 10SM FEW110 FEW170 BKN250 26/13 A3007 RMK AO2 SLP182 T02610128 10294 20261 51002
KLGA 160051Z 29004KT 10SM FEW110 SCT170 BKN250 26/13 A3006 RMK AO2 SLP180 T02610128
KLGA 160151Z 30005KT 10SM FEW110 SCT180 SCT250 26/13 A3006 RMK AO2 SLP180 T02560133
KLGA 160251Z 29004KT 10SM FEW180 SCT250 25/14 A3006 RMK AO2 SLP178 T02500139 57003
KLGA 160351Z 28003KT 10SM FEW180 SCT250 24/13 A3005 RMK AO2 SLP176 T02440128
KLGA 160451Z 00000KT 10SM SCT180 BKN250 24/12 A3005 RMK AO2 SLP176 T02390122 402940217
KLGA 160551Z 00000KT 10SM SCT150 BKN250 24/13 A3005 RMK AO2 SLP176 T02390133 10261 20233 56003
KLGA 160651Z 00000KT 10SM FEW065 BKN100 BKN170 BKN250 23/14 A3004 RMK AO2 SLP173 T02330139
KLGA 160751Z 00000KT 10SM BKN100 BKN170 BKN250 23/14 A3004 RMK AO2 SLP172 T02330144
KLGA 160851Z 29005KT 10SM SCT110 BKN160 BKN250 23/14 A3004 RMK AO2 SLP171 T02280144 56004
KLGA 160951Z 30011KT 10SM BKN110 BKN180 BKN250 23/14 A3005 RMK AO2 SLP177 T02280144
KLGA 161051Z 03004KT 10SM BKN085 22/15 A3005 RMK AO2 RAB02E14 SLP177 P0000 T02220150
KLGA 161151Z 06008KT 10SM FEW043 OVC080 22/16 A3007 RMK AO2 SLP181 60000 T02220156 10239 20222 51009



Page loaded:  12:08 UTC  |   05:08 AM Pacific  |   06:08 AM Mountain  |   07:08 AM Central  |   08:08 AM Eastern

 

ADVISORIES

FORECASTS

FORECASTS

OBSERVATIONS

USER TOOLS

ABOUT US